HIJ weather

Hiroshima Airport
Hiroshima, Hiroshima Prefecture, Japan

Public forecast

Using degrees Celsius for public forecast. Weather courtesy of forecast.io.

Current aviation weather report (METAR) for Hiroshima Airport

Report is more than 6 hours old.

Retrieved 2020/08/04 13:00 UTC (7 hours ago):

RJOA 041300Z 00000KT 6000 NSC 25/22 Q1017

Aviation forecast (TAF) for Hiroshima Airport

Retrieved 2020/08/04 18:00 UTC (2 hours ago):

TAF RJOA 041705Z 0418/0600 32004KT 6000 FEW020 TEMPO 0418/0423 4000 BR BECMG 0501/0503 17005KT BECMG 0509/0512 32004KT